sensor_id;sensor_type;location;lat;lon;timestamp;temperature;humidity
56298;DHT22;42208;6.376;-10.782;2023-03-11T00:00:43;26.50;99.90
56298;DHT22;42208;6.376;-10.782;2023-03-11T00:03:15;26.40;99.90
56298;DHT22;42208;6.376;-10.782;2023-03-11T00:05:44;26.40;99.90
56298;DHT22;42208;6.376;-10.782;2023-03-11T00:08:15;26.40;99.90
56298;DHT22;42208;6.376;-10.782;2023-03-11T00:10:46;26.40;99.90
56298;DHT22;42208;6.376;-10.782;2023-03-11T00:13:15;26.50;99.90
56298;DHT22;42208;6.376;-10.782;2023-03-11T00:15:46;26.50;99.90
56298;DHT22;42208;6.376;-10.782;2023-03-11T00:18:15;26.50;99.90
56298;DHT22;42208;6.376;-10.782;2023-03-11T00:20:45;26.50;99.90
56298;DHT22;42208;6.376;-10.782;2023-03-11T00:23:14;26.50;99.90
56298;DHT22;42208;6.376;-10.782;2023-03-11T00:25:44;26.40;99.90
56298;DHT22;42208;6.376;-10.782;2023-03-11T00:28:13;26.40;99.90
56298;DHT22;42208;6.376;-10.782;2023-03-11T00:30:43;26.40;99.90
56298;DHT22;42208;6.376;-10.782;2023-03-11T00:33:13;26.30;99.90
56298;DHT22;42208;6.376;-10.782;2023-03-11T00:35:43;26.40;99.90
56298;DHT22;42208;6.376;-10.782;2023-03-11T00:38:15;26.30;99.90
56298;DHT22;42208;6.376;-10.782;2023-03-11T00:40:46;26.30;99.90
56298;DHT22;42208;6.376;-10.782;2023-03-11T00:43:15;26.30;99.90
56298;DHT22;42208;6.376;-10.782;2023-03-11T00:45:44;26.30;99.90
56298;DHT22;42208;6.376;-10.782;2023-03-11T00:48:13;26.30;99.90
56298;DHT22;42208;6.376;-10.782;2023-03-11T00:50:41;26.30;99.90
56298;DHT22;42208;6.376;-10.782;2023-03-11T00:53:10;26.30;99.90
56298;DHT22;42208;6.376;-10.782;2023-03-11T00:55:39;26.30;99.90
56298;DHT22;42208;6.376;-10.782;2023-03-11T00:58:10;26.30;99.90
56298;DHT22;42208;6.376;-10.782;2023-03-11T01:00:46;26.20;99.90
56298;DHT22;42208;6.376;-10.782;2023-03-11T01:03:15;26.20;99.90
56298;DHT22;42208;6.376;-10.782;2023-03-11T01:05:44;26.20;99.90
56298;DHT22;42208;6.376;-10.782;2023-03-11T01:08:13;26.20;99.90
56298;DHT22;42208;6.376;-10.782;2023-03-11T01:10:41;26.20;99.90
56298;DHT22;42208;6.376;-10.782;2023-03-11T01:13:09;26.20;99.90
56298;DHT22;42208;6.376;-10.782;2023-03-11T01:15:37;26.20;99.90
56298;DHT22;42208;6.376;-10.782;2023-03-11T01:18:06;26.10;99.90
56298;DHT22;42208;6.376;-10.782;2023-03-11T01:20:36;26.10;99.90
56298;DHT22;42208;6.376;-10.782;2023-03-11T01:23:05;26.00;99.90
56298;DHT22;42208;6.376;-10.782;2023-03-11T01:25:34;26.10;99.90
56298;DHT22;42208;6.376;-10.782;2023-03-11T01:28:03;26.10;99.90
56298;DHT22;42208;6.376;-10.782;2023-03-11T01:30:31;26.10;99.90
56298;DHT22;42208;6.376;-10.782;2023-03-11T01:33:00;26.10;99.90
56298;DHT22;42208;6.376;-10.782;2023-03-11T01:35:30;26.10;99.90
56298;DHT22;42208;6.376;-10.782;2023-03-11T01:37:59;26.10;99.90
56298;DHT22;42208;6.376;-10.782;2023-03-11T01:40:48;26.00;99.90
56298;DHT22;42208;6.376;-10.782;2023-03-11T01:49:15;25.90;99.90
56298;DHT22;42208;6.376;-10.782;2023-03-11T01:51:47;26.00;99.90
56298;DHT22;42208;6.376;-10.782;2023-03-11T01:54:29;26.00;99.90
56298;DHT22;42208;6.376;-10.782;2023-03-11T01:57:00;26.00;99.90
56298;DHT22;42208;6.376;-10.782;2023-03-11T01:59:32;26.00;99.90
56298;DHT22;42208;6.376;-10.782;2023-03-11T02:04:36;25.90;99.90
56298;DHT22;42208;6.376;-10.782;2023-03-11T02:07:07;25.90;99.90
56298;DHT22;42208;6.376;-10.782;2023-03-11T02:09:36;26.00;99.90
56298;DHT22;42208;6.376;-10.782;2023-03-11T02:12:05;26.00;99.90
56298;DHT22;42208;6.376;-10.782;2023-03-11T02:14:37;26.00;99.90
56298;DHT22;42208;6.376;-10.782;2023-03-11T02:17:07;26.00;99.90
56298;DHT22;42208;6.376;-10.782;2023-03-11T02:22:32;26.00;99.90
56298;DHT22;42208;6.376;-10.782;2023-03-11T02:25:23;26.00;99.90
56298;DHT22;42208;6.376;-10.782;2023-03-11T02:27:54;26.00;99.90
56298;DHT22;42208;6.376;-10.782;2023-03-11T02:30:27;25.90;99.90
56298;DHT22;42208;6.376;-10.782;2023-03-11T02:32:56;26.00;99.90
56298;DHT22;42208;6.376;-10.782;2023-03-11T02:35:25;25.90;99.90
56298;DHT22;42208;6.376;-10.782;2023-03-11T02:37:55;25.90;99.90
56298;DHT22;42208;6.376;-10.782;2023-03-11T02:43:00;25.90;99.90
56298;DHT22;42208;6.376;-10.782;2023-03-11T02:45:30;26.00;99.90
56298;DHT22;42208;6.376;-10.782;2023-03-11T02:47:59;26.00;99.90
56298;DHT22;42208;6.376;-10.782;2023-03-11T02:50:29;26.00;99.90
56298;DHT22;42208;6.376;-10.782;2023-03-11T02:52:58;26.00;99.90
56298;DHT22;42208;6.376;-10.782;2023-03-11T02:55:27;26.00;99.90
56298;DHT22;42208;6.376;-10.782;2023-03-11T02:57:55;26.00;99.90
56298;DHT22;42208;6.376;-10.782;2023-03-11T03:00:23;25.90;99.90
56298;DHT22;42208;6.376;-10.782;2023-03-11T03:02:57;25.90;99.90
56298;DHT22;42208;6.376;-10.782;2023-03-11T03:05:27;25.90;99.90
56298;DHT22;42208;6.376;-10.782;2023-03-11T03:07:57;25.80;99.90
56298;DHT22;42208;6.376;-10.782;2023-03-11T03:10:26;25.80;99.90
56298;DHT22;42208;6.376;-10.782;2023-03-11T03:12:54;25.80;99.90
56298;DHT22;42208;6.376;-10.782;2023-03-11T03:15:22;25.70;99.90
56298;DHT22;42208;6.376;-10.782;2023-03-11T03:17:51;25.70;99.90
56298;DHT22;42208;6.376;-10.782;2023-03-11T03:20:19;25.80;99.90
56298;DHT22;42208;6.376;-10.782;2023-03-11T03:22:51;25.80;99.90
56298;DHT22;42208;6.376;-10.782;2023-03-11T03:25:24;25.80;99.90
56298;DHT22;42208;6.376;-10.782;2023-03-11T03:27:54;25.90;99.90
56298;DHT22;42208;6.376;-10.782;2023-03-11T03:30:23;25.80;99.90
56298;DHT22;42208;6.376;-10.782;2023-03-11T03:32:53;25.90;99.90
56298;DHT22;42208;6.376;-10.782;2023-03-11T03:35:21;25.90;99.90
56298;DHT22;42208;6.376;-10.782;2023-03-11T03:38:03;25.90;99.90
56298;DHT22;42208;6.376;-10.782;2023-03-11T03:40:32;25.90;99.90
56298;DHT22;42208;6.376;-10.782;2023-03-11T03:43:04;25.90;99.90
56298;DHT22;42208;6.376;-10.782;2023-03-11T03:45:34;25.90;99.90
56298;DHT22;42208;6.376;-10.782;2023-03-11T03:48:03;25.90;99.90
56298;DHT22;42208;6.376;-10.782;2023-03-11T03:50:34;25.90;99.90
56298;DHT22;42208;6.376;-10.782;2023-03-11T03:53:03;25.70;99.90
56298;DHT22;42208;6.376;-10.782;2023-03-11T03:55:31;25.80;99.90
56298;DHT22;42208;6.376;-10.782;2023-03-11T03:58:00;25.80;99.90
56298;DHT22;42208;6.376;-10.782;2023-03-11T04:00:34;25.70;99.90
56298;DHT22;42208;6.376;-10.782;2023-03-11T04:03:03;25.70;99.90
56298;DHT22;42208;6.376;-10.782;2023-03-11T04:05:42;25.70;99.90
56298;DHT22;42208;6.376;-10.782;2023-03-11T04:08:12;25.70;99.90
56298;DHT22;42208;6.376;-10.782;2023-03-11T04:10:41;25.70;99.90
56298;DHT22;42208;6.376;-10.782;2023-03-11T04:13:10;25.80;99.90
56298;DHT22;42208;6.376;-10.782;2023-03-11T04:15:38;25.80;99.90
56298;DHT22;42208;6.376;-10.782;2023-03-11T04:18:07;25.80;99.90
56298;DHT22;42208;6.376;-10.782;2023-03-11T04:20:37;25.80;99.90
56298;DHT22;42208;6.376;-10.782;2023-03-11T04:23:06;25.80;99.90
56298;DHT22;42208;6.376;-10.782;2023-03-11T04:25:34;25.80;99.90
56298;DHT22;42208;6.376;-10.782;2023-03-11T04:28:03;25.80;99.90
56298;DHT22;42208;6.376;-10.782;2023-03-11T04:30:32;25.80;99.90
56298;DHT22;42208;6.376;-10.782;2023-03-11T04:33:00;25.80;99.90
56298;DHT22;42208;6.376;-10.782;2023-03-11T04:35:29;25.70;99.90
56298;DHT22;42208;6.376;-10.782;2023-03-11T04:37:59;25.70;99.90
56298;DHT22;42208;6.376;-10.782;2023-03-11T04:40:28;25.70;99.90
56298;DHT22;42208;6.376;-10.782;2023-03-11T04:42:56;25.60;99.90
56298;DHT22;42208;6.376;-10.782;2023-03-11T04:45:25;25.70;99.90
56298;DHT22;42208;6.376;-10.782;2023-03-11T04:47:56;25.60;99.90
56298;DHT22;42208;6.376;-10.782;2023-03-11T04:50:24;25.60;99.90
56298;DHT22;42208;6.376;-10.782;2023-03-11T04:52:53;25.60;99.90
56298;DHT22;42208;6.376;-10.782;2023-03-11T04:55:22;25.60;99.90
56298;DHT22;42208;6.376;-10.782;2023-03-11T04:57:51;25.70;99.90
56298;DHT22;42208;6.376;-10.782;2023-03-11T05:00:19;25.70;99.90
56298;DHT22;42208;6.376;-10.782;2023-03-11T05:02:50;25.70;99.90
56298;DHT22;42208;6.376;-10.782;2023-03-11T05:05:18;25.70;99.90
56298;DHT22;42208;6.376;-10.782;2023-03-11T05:07:52;25.70;99.90
56298;DHT22;42208;6.376;-10.782;2023-03-11T05:10:21;25.60;99.90
56298;DHT22;42208;6.376;-10.782;2023-03-11T05:12:53;25.70;99.90
56298;DHT22;42208;6.376;-10.782;2023-03-11T05:15:25;25.70;99.90
56298;DHT22;42208;6.376;-10.782;2023-03-11T05:17:53;25.70;99.90
56298;DHT22;42208;6.376;-10.782;2023-03-11T05:20:22;25.60;99.90
56298;DHT22;42208;6.376;-10.782;2023-03-11T05:22:50;25.60;99.90
56298;DHT22;42208;6.376;-10.782;2023-03-11T05:25:19;25.60;99.90
56298;DHT22;42208;6.376;-10.782;2023-03-11T05:27:48;25.60;99.90
56298;DHT22;42208;6.376;-10.782;2023-03-11T05:30:18;25.60;99.90
56298;DHT22;42208;6.376;-10.782;2023-03-11T05:32:48;25.70;99.90
56298;DHT22;42208;6.376;-10.782;2023-03-11T05:35:17;25.70;99.90
56298;DHT22;42208;6.376;-10.782;2023-03-11T05:37:46;25.70;99.90
56298;DHT22;42208;6.376;-10.782;2023-03-11T05:40:15;25.70;99.90
56298;DHT22;42208;6.376;-10.782;2023-03-11T05:42:43;25.80;99.90
56298;DHT22;42208;6.376;-10.782;2023-03-11T05:45:14;25.70;99.90
56298;DHT22;42208;6.376;-10.782;2023-03-11T05:47:44;25.80;99.90
56298;DHT22;42208;6.376;-10.782;2023-03-11T05:50:15;25.70;99.90
56298;DHT22;42208;6.376;-10.782;2023-03-11T05:52:45;25.70;99.90
56298;DHT22;42208;6.376;-10.782;2023-03-11T05:55:14;25.60;99.90
56298;DHT22;42208;6.376;-10.782;2023-03-11T05:57:44;25.50;99.90
56298;DHT22;42208;6.376;-10.782;2023-03-11T06:00:13;25.50;99.90
56298;DHT22;42208;6.376;-10.782;2023-03-11T06:02:45;25.50;99.90
56298;DHT22;42208;6.376;-10.782;2023-03-11T06:05:16;25.50;99.90
56298;DHT22;42208;6.376;-10.782;2023-03-11T06:07:47;25.50;99.90
56298;DHT22;42208;6.376;-10.782;2023-03-11T06:10:16;25.50;99.90
56298;DHT22;42208;6.376;-10.782;2023-03-11T06:12:45;25.50;99.90
56298;DHT22;42208;6.376;-10.782;2023-03-11T06:15:23;25.50;99.90
56298;DHT22;42208;6.376;-10.782;2023-03-11T06:17:53;25.50;99.90
56298;DHT22;42208;6.376;-10.782;2023-03-11T06:20:21;25.60;99.90
56298;DHT22;42208;6.376;-10.782;2023-03-11T06:22:50;25.60;99.90
56298;DHT22;42208;6.376;-10.782;2023-03-11T06:25:22;25.60;99.90
56298;DHT22;42208;6.376;-10.782;2023-03-11T06:27:52;25.60;99.90
56298;DHT22;42208;6.376;-10.782;2023-03-11T06:30:23;25.60;99.90
56298;DHT22;42208;6.376;-10.782;2023-03-11T06:33:02;25.60;99.90
56298;DHT22;42208;6.376;-10.782;2023-03-11T06:35:31;25.60;99.90
56298;DHT22;42208;6.376;-10.782;2023-03-11T06:37:59;25.70;99.90
56298;DHT22;42208;6.376;-10.782;2023-03-11T06:40:28;25.70;99.90
56298;DHT22;42208;6.376;-10.782;2023-03-11T06:42:56;25.70;99.90
56298;DHT22;42208;6.376;-10.782;2023-03-11T06:45:27;25.70;99.90
56298;DHT22;42208;6.376;-10.782;2023-03-11T06:47:56;25.70;99.90
56298;DHT22;42208;6.376;-10.782;2023-03-11T06:50:24;25.70;99.90
56298;DHT22;42208;6.376;-10.782;2023-03-11T06:52:55;25.70;99.90
56298;DHT22;42208;6.376;-10.782;2023-03-11T06:55:24;25.60;99.90
56298;DHT22;42208;6.376;-10.782;2023-03-11T06:57:52;25.70;99.90
56298;DHT22;42208;6.376;-10.782;2023-03-11T07:00:21;25.70;99.90
56298;DHT22;42208;6.376;-10.782;2023-03-11T07:02:54;25.70;99.90
56298;DHT22;42208;6.376;-10.782;2023-03-11T07:05:24;25.70;99.90
56298;DHT22;42208;6.376;-10.782;2023-03-11T07:07:58;25.70;99.90
56298;DHT22;42208;6.376;-10.782;2023-03-11T07:10:26;25.80;99.90
56298;DHT22;42208;6.376;-10.782;2023-03-11T07:12:55;25.80;99.90
56298;DHT22;42208;6.376;-10.782;2023-03-11T07:15:23;25.80;99.90
56298;DHT22;42208;6.376;-10.782;2023-03-11T07:17:52;25.80;99.90
56298;DHT22;42208;6.376;-10.782;2023-03-11T07:20:20;25.80;99.90
56298;DHT22;42208;6.376;-10.782;2023-03-11T07:22:49;25.90;99.90
56298;DHT22;42208;6.376;-10.782;2023-03-11T07:25:17;25.80;99.90
56298;DHT22;42208;6.376;-10.782;2023-03-11T07:27:46;25.90;99.90
56298;DHT22;42208;6.376;-10.782;2023-03-11T07:30:14;25.90;99.90
56298;DHT22;42208;6.376;-10.782;2023-03-11T07:32:42;25.90;99.90
56298;DHT22;42208;6.376;-10.782;2023-03-11T07:35:11;25.90;99.90
56298;DHT22;42208;6.376;-10.782;2023-03-11T07:37:40;25.90;99.90
56298;DHT22;42208;6.376;-10.782;2023-03-11T07:40:09;25.90;99.90
56298;DHT22;42208;6.376;-10.782;2023-03-11T07:42:37;25.90;99.90
56298;DHT22;42208;6.376;-10.782;2023-03-11T07:45:07;25.90;99.90
56298;DHT22;42208;6.376;-10.782;2023-03-11T07:47:35;25.90;99.90
56298;DHT22;42208;6.376;-10.782;2023-03-11T07:50:04;25.90;99.90
56298;DHT22;42208;6.376;-10.782;2023-03-11T07:52:32;25.90;99.90
56298;DHT22;42208;6.376;-10.782;2023-03-11T07:55:00;25.90;99.90
56298;DHT22;42208;6.376;-10.782;2023-03-11T07:57:29;25.90;99.90
56298;DHT22;42208;6.376;-10.782;2023-03-11T07:59:57;26.00;99.90
56298;DHT22;42208;6.376;-10.782;2023-03-11T08:02:26;26.00;99.90
56298;DHT22;42208;6.376;-10.782;2023-03-11T08:04:55;26.00;99.90
56298;DHT22;42208;6.376;-10.782;2023-03-11T08:07:23;26.00;99.90
56298;DHT22;42208;6.376;-10.782;2023-03-11T08:09:52;26.00;99.90
56298;DHT22;42208;6.376;-10.782;2023-03-11T08:12:20;26.10;99.90
56298;DHT22;42208;6.376;-10.782;2023-03-11T08:14:48;26.10;99.90
56298;DHT22;42208;6.376;-10.782;2023-03-11T08:17:17;26.10;99.90
56298;DHT22;42208;6.376;-10.782;2023-03-11T08:19:45;26.20;99.90
56298;DHT22;42208;6.376;-10.782;2023-03-11T08:22:16;26.20;99.90
56298;DHT22;42208;6.376;-10.782;2023-03-11T08:24:44;26.20;99.90
56298;DHT22;42208;6.376;-10.782;2023-03-11T08:27:12;26.30;99.90
56298;DHT22;42208;6.376;-10.782;2023-03-11T08:29:41;26.30;99.90
56298;DHT22;42208;6.376;-10.782;2023-03-11T08:32:09;26.30;99.90
56298;DHT22;42208;6.376;-10.782;2023-03-11T08:34:37;26.40;99.90
56298;DHT22;42208;6.376;-10.782;2023-03-11T08:37:06;26.40;99.90
56298;DHT22;42208;6.376;-10.782;2023-03-11T08:39:34;26.40;99.90
56298;DHT22;42208;6.376;-10.782;2023-03-11T08:42:05;26.50;99.90
56298;DHT22;42208;6.376;-10.782;2023-03-11T08:44:33;26.50;99.90
56298;DHT22;42208;6.376;-10.782;2023-03-11T08:47:01;26.50;99.90
56298;DHT22;42208;6.376;-10.782;2023-03-11T08:49:30;26.60;99.90
56298;DHT22;42208;6.376;-10.782;2023-03-11T08:51:58;26.70;99.90
56298;DHT22;42208;6.376;-10.782;2023-03-11T08:54:27;26.80;99.90
56298;DHT22;42208;6.376;-10.782;2023-03-11T09:10:36;27.00;99.90
56298;DHT22;42208;6.376;-10.782;2023-03-11T09:13:05;27.30;99.90
56298;DHT22;42208;6.376;-10.782;2023-03-11T09:15:33;27.30;99.90
56298;DHT22;42208;6.376;-10.782;2023-03-11T09:18:01;27.30;99.90
56298;DHT22;42208;6.376;-10.782;2023-03-11T09:20:30;27.40;99.90
56298;DHT22;42208;6.376;-10.782;2023-03-11T09:22:58;27.40;99.90
56298;DHT22;42208;6.376;-10.782;2023-03-11T09:25:26;27.50;99.90
56298;DHT22;42208;6.376;-10.782;2023-03-11T09:27:54;27.60;99.90
56298;DHT22;42208;6.376;-10.782;2023-03-11T09:30:23;27.60;99.90
56298;DHT22;42208;6.376;-10.782;2023-03-11T09:32:51;27.60;99.90
56298;DHT22;42208;6.376;-10.782;2023-03-11T09:35:20;27.60;99.90
56298;DHT22;42208;6.376;-10.782;2023-03-11T09:37:48;27.60;99.90
56298;DHT22;42208;6.376;-10.782;2023-03-11T09:40:19;27.70;99.90
56298;DHT22;42208;6.376;-10.782;2023-03-11T09:43:07;27.70;99.90
56298;DHT22;42208;6.376;-10.782;2023-03-11T09:45:42;27.80;99.90
56298;DHT22;42208;6.376;-10.782;2023-03-11T09:51:04;27.80;99.90
56298;DHT22;42208;6.376;-10.782;2023-03-11T09:53:43;27.80;99.90
56298;DHT22;42208;6.376;-10.782;2023-03-11T09:56:15;27.80;99.90
56298;DHT22;42208;6.376;-10.782;2023-03-11T09:58:46;27.80;99.90
56298;DHT22;42208;6.376;-10.782;2023-03-11T10:01:39;27.70;99.90
56298;DHT22;42208;6.376;-10.782;2023-03-11T10:06:49;27.70;99.90
56298;DHT22;42208;6.376;-10.782;2023-03-11T10:15:13;27.60;99.90
56298;DHT22;42208;6.376;-10.782;2023-03-11T10:26:21;27.40;99.90
56298;DHT22;42208;6.376;-10.782;2023-03-11T10:29:06;27.50;99.90
56298;DHT22;42208;6.376;-10.782;2023-03-11T10:31:47;27.50;99.90
56298;DHT22;42208;6.376;-10.782;2023-03-11T10:39:30;27.50;99.90
56298;DHT22;42208;6.376;-10.782;2023-03-11T10:42:11;27.50;99.90
56298;DHT22;42208;6.376;-10.782;2023-03-11T10:44:41;27.40;99.90
56298;DHT22;42208;6.376;-10.782;2023-03-11T10:47:22;27.40;99.90
56298;DHT22;42208;6.376;-10.782;2023-03-11T10:49:52;27.40;99.90
56298;DHT22;42208;6.376;-10.782;2023-03-11T10:52:20;27.40;99.90
56298;DHT22;42208;6.376;-10.782;2023-03-11T10:54:59;27.50;99.90
56298;DHT22;42208;6.376;-10.782;2023-03-11T10:57:36;27.60;99.90
56298;DHT22;42208;6.376;-10.782;2023-03-11T11:00:07;27.60;99.90
56298;DHT22;42208;6.376;-10.782;2023-03-11T11:02:47;27.70;99.90
56298;DHT22;42208;6.376;-10.782;2023-03-11T11:07:49;27.70;99.90
56298;DHT22;42208;6.376;-10.782;2023-03-11T11:10:22;27.80;99.90
56298;DHT22;42208;6.376;-10.782;2023-03-11T11:15:42;27.90;99.90
56298;DHT22;42208;6.376;-10.782;2023-03-11T11:18:24;27.90;99.90
56298;DHT22;42208;6.376;-10.782;2023-03-11T11:23:41;28.00;99.90
56298;DHT22;42208;6.376;-10.782;2023-03-11T11:26:22;28.10;99.90
56298;DHT22;42208;6.376;-10.782;2023-03-11T11:31:44;28.00;99.90
56298;DHT22;42208;6.376;-10.782;2023-03-11T11:34:33;28.10;99.90
56298;DHT22;42208;6.376;-10.782;2023-03-11T11:37:04;28.20;99.90
56298;DHT22;42208;6.376;-10.782;2023-03-11T11:39:43;28.20;99.90
56298;DHT22;42208;6.376;-10.782;2023-03-11T11:42:14;28.20;99.90
56298;DHT22;42208;6.376;-10.782;2023-03-11T11:44:42;28.20;99.90
56298;DHT22;42208;6.376;-10.782;2023-03-11T11:47:18;28.30;99.90
56298;DHT22;42208;6.376;-10.782;2023-03-11T11:50:12;28.20;99.90
56298;DHT22;42208;6.376;-10.782;2023-03-11T11:52:46;28.10;99.90
56298;DHT22;42208;6.376;-10.782;2023-03-11T11:55:23;28.10;99.90
56298;DHT22;42208;6.376;-10.782;2023-03-11T11:57:53;28.10;99.90
56298;DHT22;42208;6.376;-10.782;2023-03-11T12:00:46;28.10;99.90
56298;DHT22;42208;6.376;-10.782;2023-03-11T12:05:59;28.00;99.90
56298;DHT22;42208;6.376;-10.782;2023-03-11T12:11:25;28.00;99.90
56298;DHT22;42208;6.376;-10.782;2023-03-11T12:16:33;28.00;99.90
56298;DHT22;42208;6.376;-10.782;2023-03-11T12:27:24;27.90;99.90
56298;DHT22;42208;6.376;-10.782;2023-03-11T12:30:09;27.90;99.90
56298;DHT22;42208;6.376;-10.782;2023-03-11T12:32:53;27.90;99.90
56298;DHT22;42208;6.376;-10.782;2023-03-11T12:35:31;27.90;99.90
56298;DHT22;42208;6.376;-10.782;2023-03-11T12:38:06;28.00;99.90
56298;DHT22;42208;6.376;-10.782;2023-03-11T12:40:45;28.00;99.90
56298;DHT22;42208;6.376;-10.782;2023-03-11T12:49:10;28.10;99.90
56298;DHT22;42208;6.376;-10.782;2023-03-11T12:51:40;28.20;99.90
56298;DHT22;42208;6.376;-10.782;2023-03-11T12:54:34;28.20;99.90
56298;DHT22;42208;6.376;-10.782;2023-03-11T13:08:34;28.20;99.90
56298;DHT22;42208;6.376;-10.782;2023-03-11T13:11:32;28.20;99.90
56298;DHT22;42208;6.376;-10.782;2023-03-11T13:16:38;28.20;99.90
56298;DHT22;42208;6.376;-10.782;2023-03-11T13:21:55;28.20;99.90
56298;DHT22;42208;6.376;-10.782;2023-03-11T13:27:35;28.30;99.90
56298;DHT22;42208;6.376;-10.782;2023-03-11T13:30:08;28.40;99.90
56298;DHT22;42208;6.376;-10.782;2023-03-11T13:38:27;28.50;99.90
56298;DHT22;42208;6.376;-10.782;2023-03-11T13:41:01;28.60;99.90
56298;DHT22;42208;6.376;-10.782;2023-03-11T13:43:30;28.70;99.90
56298;DHT22;42208;6.376;-10.782;2023-03-11T13:48:44;28.70;99.90
56298;DHT22;42208;6.376;-10.782;2023-03-11T13:56:36;28.80;99.90
56298;DHT22;42208;6.376;-10.782;2023-03-11T13:59:25;28.80;99.90
56298;DHT22;42208;6.376;-10.782;2023-03-11T14:01:56;28.80;99.90
56298;DHT22;42208;6.376;-10.782;2023-03-11T14:04:29;28.90;99.90
56298;DHT22;42208;6.376;-10.782;2023-03-11T14:06:58;28.90;99.90
56298;DHT22;42208;6.376;-10.782;2023-03-11T14:09:28;29.00;99.90
56298;DHT22;42208;6.376;-10.782;2023-03-11T14:12:05;29.00;99.90
56298;DHT22;42208;6.376;-10.782;2023-03-11T14:17:15;29.00;99.90
56298;DHT22;42208;6.376;-10.782;2023-03-11T14:22:52;28.90;99.90
56298;DHT22;42208;6.376;-10.782;2023-03-11T14:25:26;28.80;99.90
56298;DHT22;42208;6.376;-10.782;2023-03-11T14:28:01;28.80;99.90
56298;DHT22;42208;6.376;-10.782;2023-03-11T14:30:32;28.80;99.90
56298;DHT22;42208;6.376;-10.782;2023-03-11T14:33:19;28.70;99.90
56298;DHT22;42208;6.376;-10.782;2023-03-11T14:35:53;28.70;99.90
56298;DHT22;42208;6.376;-10.782;2023-03-11T14:38:25;28.70;99.90
56298;DHT22;42208;6.376;-10.782;2023-03-11T14:41:01;28.70;99.90
56298;DHT22;42208;6.376;-10.782;2023-03-11T14:43:33;28.70;99.90
56298;DHT22;42208;6.376;-10.782;2023-03-11T14:46:05;28.60;99.90
56298;DHT22;42208;6.376;-10.782;2023-03-11T14:48:39;28.60;99.90
56298;DHT22;42208;6.376;-10.782;2023-03-11T14:51:26;28.60;99.90
56298;DHT22;42208;6.376;-10.782;2023-03-11T14:54:27;28.70;99.90
56298;DHT22;42208;6.376;-10.782;2023-03-11T14:57:21;28.60;99.90
56298;DHT22;42208;6.376;-10.782;2023-03-11T14:59:52;28.70;99.90
56298;DHT22;42208;6.376;-10.782;2023-03-11T15:02:38;28.70;99.90
56298;DHT22;42208;6.376;-10.782;2023-03-11T15:05:18;28.80;99.90
56298;DHT22;42208;6.376;-10.782;2023-03-11T15:07:49;28.90;99.90
56298;DHT22;42208;6.376;-10.782;2023-03-11T15:10:18;29.00;99.90
56298;DHT22;42208;6.376;-10.782;2023-03-11T15:12:46;29.10;99.90
56298;DHT22;42208;6.376;-10.782;2023-03-11T15:15:24;29.20;99.90
56298;DHT22;42208;6.376;-10.782;2023-03-11T15:17:55;29.10;99.90
56298;DHT22;42208;6.376;-10.782;2023-03-11T15:20:31;29.10;99.90
56298;DHT22;42208;6.376;-10.782;2023-03-11T15:23:02;29.00;99.90
56298;DHT22;42208;6.376;-10.782;2023-03-11T15:25:36;29.00;99.90
56298;DHT22;42208;6.376;-10.782;2023-03-11T15:30:48;28.90;99.90
56298;DHT22;42208;6.376;-10.782;2023-03-11T15:33:21;28.90;99.90
56298;DHT22;42208;6.376;-10.782;2023-03-11T15:35:50;28.90;99.90
56298;DHT22;42208;6.376;-10.782;2023-03-11T15:38:23;28.90;99.90
56298;DHT22;42208;6.376;-10.782;2023-03-11T15:40:57;28.90;99.90
56298;DHT22;42208;6.376;-10.782;2023-03-11T15:43:29;28.80;99.90
56298;DHT22;42208;6.376;-10.782;2023-03-11T15:45:59;28.80;99.90
56298;DHT22;42208;6.376;-10.782;2023-03-11T15:48:29;28.80;99.90
56298;DHT22;42208;6.376;-10.782;2023-03-11T15:50:59;28.70;99.90
56298;DHT22;42208;6.376;-10.782;2023-03-11T15:53:29;28.70;99.90
56298;DHT22;42208;6.376;-10.782;2023-03-11T15:56:05;28.70;99.90
56298;DHT22;42208;6.376;-10.782;2023-03-11T15:58:40;28.80;99.90
56298;DHT22;42208;6.376;-10.782;2023-03-11T16:01:08;28.80;99.90
56298;DHT22;42208;6.376;-10.782;2023-03-11T16:03:37;28.80;99.90
56298;DHT22;42208;6.376;-10.782;2023-03-11T16:06:05;28.80;99.90
56298;DHT22;42208;6.376;-10.782;2023-03-11T16:08:34;28.70;99.90
56298;DHT22;42208;6.376;-10.782;2023-03-11T16:11:02;28.70;99.90
56298;DHT22;42208;6.376;-10.782;2023-03-11T16:13:31;28.70;99.90
56298;DHT22;42208;6.376;-10.782;2023-03-11T16:15:59;28.70;99.90
56298;DHT22;42208;6.376;-10.782;2023-03-11T16:18:30;28.60;99.90
56298;DHT22;42208;6.376;-10.782;2023-03-11T16:20:59;28.60;99.90
56298;DHT22;42208;6.376;-10.782;2023-03-11T16:23:30;28.60;99.90
56298;DHT22;42208;6.376;-10.782;2023-03-11T16:26:18;28.50;99.90
56298;DHT22;42208;6.376;-10.782;2023-03-11T16:28:46;28.50;99.90
56298;DHT22;42208;6.376;-10.782;2023-03-11T16:31:14;28.50;99.90
56298;DHT22;42208;6.376;-10.782;2023-03-11T16:33:43;28.50;99.90
56298;DHT22;42208;6.376;-10.782;2023-03-11T16:36:11;28.50;99.90
56298;DHT22;42208;6.376;-10.782;2023-03-11T16:38:47;28.40;99.90
56298;DHT22;42208;6.376;-10.782;2023-03-11T16:41:16;28.40;99.90
56298;DHT22;42208;6.376;-10.782;2023-03-11T16:43:45;28.40;99.90
56298;DHT22;42208;6.376;-10.782;2023-03-11T16:46:13;28.40;99.90
56298;DHT22;42208;6.376;-10.782;2023-03-11T16:48:41;28.30;99.90
56298;DHT22;42208;6.376;-10.782;2023-03-11T16:51:10;28.30;99.90
56298;DHT22;42208;6.376;-10.782;2023-03-11T16:53:39;28.30;99.90
56298;DHT22;42208;6.376;-10.782;2023-03-11T16:56:08;28.20;99.90
56298;DHT22;42208;6.376;-10.782;2023-03-11T16:58:37;28.20;99.90
56298;DHT22;42208;6.376;-10.782;2023-03-11T17:01:05;28.20;99.90
56298;DHT22;42208;6.376;-10.782;2023-03-11T17:03:33;28.20;99.90
56298;DHT22;42208;6.376;-10.782;2023-03-11T17:06:09;28.20;99.90
56298;DHT22;42208;6.376;-10.782;2023-03-11T17:08:38;28.20;99.90
56298;DHT22;42208;6.376;-10.782;2023-03-11T17:11:19;28.20;99.90
56298;DHT22;42208;6.376;-10.782;2023-03-11T17:13:49;28.20;99.90
56298;DHT22;42208;6.376;-10.782;2023-03-11T17:16:18;28.20;99.90
56298;DHT22;42208;6.376;-10.782;2023-03-11T17:18:46;28.10;99.90
56298;DHT22;42208;6.376;-10.782;2023-03-11T17:21:15;28.10;99.90
56298;DHT22;42208;6.376;-10.782;2023-03-11T17:23:44;28.10;99.90
56298;DHT22;42208;6.376;-10.782;2023-03-11T17:26:15;28.10;99.90
56298;DHT22;42208;6.376;-10.782;2023-03-11T17:28:44;28.10;99.90
56298;DHT22;42208;6.376;-10.782;2023-03-11T17:31:13;28.10;99.90
56298;DHT22;42208;6.376;-10.782;2023-03-11T17:33:43;28.10;99.90
56298;DHT22;42208;6.376;-10.782;2023-03-11T17:36:13;28.10;99.90
56298;DHT22;42208;6.376;-10.782;2023-03-11T17:38:43;28.00;99.90
56298;DHT22;42208;6.376;-10.782;2023-03-11T17:41:14;28.00;99.90
56298;DHT22;42208;6.376;-10.782;2023-03-11T17:43:44;28.00;99.90
56298;DHT22;42208;6.376;-10.782;2023-03-11T17:46:14;28.00;99.90
56298;DHT22;42208;6.376;-10.782;2023-03-11T17:48:45;28.00;99.90